createdAt,value
2023-12-18T00:00:01.039Z,2.07
2023-12-18T00:02:27.512Z,2.09
2023-12-18T00:04:53.983Z,2.10
2023-12-18T00:07:20.416Z,2.10
2023-12-18T00:09:46.830Z,2.12
2023-12-18T00:12:13.347Z,2.13
2023-12-18T00:14:39.844Z,2.09
2023-12-18T00:17:06.214Z,2.05
2023-12-18T00:19:32.752Z,2.00
2023-12-18T00:21:59.298Z,1.93
2023-12-18T00:24:25.779Z,1.84
2023-12-18T00:26:52.188Z,1.79
2023-12-18T00:29:18.588Z,1.71
2023-12-18T00:31:44.943Z,1.71
2023-12-18T00:34:11.493Z,1.76
2023-12-18T00:36:38.036Z,1.81
2023-12-18T00:39:04.568Z,1.83
2023-12-18T00:41:31.004Z,1.87
2023-12-18T00:43:57.410Z,1.91
2023-12-18T00:46:23.800Z,1.95
2023-12-18T00:48:50.314Z,1.96
2023-12-18T00:51:16.801Z,1.98
2023-12-18T00:53:43.333Z,2.01
2023-12-18T00:56:09.774Z,2.01
2023-12-18T00:58:36.189Z,2.04
2023-12-18T01:01:02.722Z,2.04
2023-12-18T01:03:29.486Z,2.05
2023-12-18T01:05:55.877Z,2.02
2023-12-18T01:08:22.259Z,1.95
2023-12-18T01:10:48.974Z,1.88
2023-12-18T01:13:15.387Z,1.83
2023-12-18T01:15:41.813Z,1.81
2023-12-18T01:18:08.457Z,1.80
2023-12-18T01:20:35.385Z,1.83
2023-12-18T01:23:04.702Z,1.80
2023-12-18T01:25:32.054Z,1.80
2023-12-18T01:27:58.521Z,1.79
2023-12-18T01:30:24.982Z,1.77
2023-12-18T01:32:51.515Z,1.72
2023-12-18T01:35:17.997Z,1.68
2023-12-18T01:37:44.561Z,1.63
2023-12-18T01:40:11.396Z,1.58
2023-12-18T01:42:38.474Z,1.59
2023-12-18T01:45:05.057Z,1.58
2023-12-18T01:47:31.547Z,1.58
2023-12-18T01:49:58.394Z,1.59
2023-12-18T01:52:25.010Z,1.60
2023-12-18T01:54:51.890Z,1.59
2023-12-18T01:57:18.886Z,1.58
2023-12-18T01:59:45.365Z,1.60
2023-12-18T02:02:11.751Z,1.64
2023-12-18T02:04:38.336Z,1.68
2023-12-18T02:07:06.277Z,1.71
2023-12-18T02:09:32.937Z,1.75
2023-12-18T02:11:59.345Z,1.78
2023-12-18T02:14:26.114Z,1.80
2023-12-18T02:16:52.544Z,1.81
2023-12-18T02:19:25.782Z,1.79
2023-12-18T02:21:52.624Z,1.82
2023-12-18T02:24:19.685Z,1.86
2023-12-18T02:26:46.938Z,1.86
2023-12-18T02:29:13.392Z,1.87
2023-12-18T02:31:40.045Z,1.89
2023-12-18T02:34:06.654Z,1.92
2023-12-18T02:36:33.226Z,1.98
2023-12-18T02:38:59.593Z,2.01
2023-12-18T02:41:26.133Z,2.04
2023-12-18T02:43:52.511Z,2.03
2023-12-18T02:46:18.904Z,2.03
2023-12-18T02:48:45.422Z,2.03
2023-12-18T02:51:11.950Z,2.00
2023-12-18T02:53:38.616Z,1.99
2023-12-18T02:56:05.217Z,1.99
2023-12-18T02:58:31.601Z,2.00
2023-12-18T03:00:58.027Z,2.00
2023-12-18T03:03:24.551Z,2.01
2023-12-18T03:05:51.044Z,2.00
2023-12-18T03:08:17.479Z,1.95
2023-12-18T03:10:43.986Z,1.92
2023-12-18T03:13:10.361Z,1.88
2023-12-18T03:15:36.856Z,1.88
2023-12-18T03:18:03.461Z,1.85
2023-12-18T03:20:29.873Z,1.82
2023-12-18T03:22:56.283Z,1.78
2023-12-18T03:25:22.651Z,1.74
2023-12-18T03:27:49.146Z,1.73
2023-12-18T03:30:15.782Z,1.67
2023-12-18T03:32:42.620Z,1.66
2023-12-18T03:35:09.372Z,1.63
2023-12-18T03:37:35.797Z,1.63
2023-12-18T03:40:02.561Z,1.66
2023-12-18T03:42:29.025Z,1.66
2023-12-18T03:44:55.435Z,1.69
2023-12-18T03:47:21.806Z,1.71
2023-12-18T03:49:48.259Z,1.76
2023-12-18T03:52:14.786Z,1.79
2023-12-18T03:54:41.218Z,1.83
2023-12-18T03:57:07.628Z,1.84
2023-12-18T03:59:34.150Z,1.84
2023-12-18T04:02:00.632Z,1.81
2023-12-18T04:04:27.103Z,1.81
2023-12-18T04:06:53.699Z,1.79
2023-12-18T04:09:20.161Z,1.75
2023-12-18T04:11:46.596Z,1.74
2023-12-18T04:14:12.965Z,1.71
2023-12-18T04:16:39.404Z,1.71
2023-12-18T04:19:06.305Z,1.66
2023-12-18T04:21:32.987Z,1.65
2023-12-18T04:23:59.480Z,1.68
2023-12-18T04:26:25.869Z,1.66
2023-12-18T04:28:52.384Z,1.61
2023-12-18T04:31:20.063Z,1.58
2023-12-18T04:33:46.891Z,1.59
2023-12-18T04:36:13.370Z,1.61
2023-12-18T04:38:41.026Z,1.61
2023-12-18T04:41:07.445Z,1.61
2023-12-18T04:43:34.325Z,1.60
2023-12-18T04:46:01.380Z,1.60
2023-12-18T04:48:27.868Z,1.59
2023-12-18T04:50:54.454Z,1.59
2023-12-18T04:53:20.922Z,1.59
2023-12-18T04:55:47.284Z,1.59
2023-12-18T04:58:13.692Z,1.58
2023-12-18T05:00:40.243Z,1.59
2023-12-18T05:03:06.889Z,1.57
2023-12-18T05:05:33.373Z,1.54
2023-12-18T05:07:59.803Z,1.52
2023-12-18T05:10:26.169Z,1.52
2023-12-18T05:12:52.593Z,1.52
2023-12-18T05:15:19.143Z,1.51
2023-12-18T05:17:45.773Z,1.50
2023-12-18T05:20:13.724Z,1.48
2023-12-18T05:22:40.498Z,1.47
2023-12-18T05:25:09.314Z,1.46
2023-12-18T05:27:35.719Z,1.44
2023-12-18T05:30:02.230Z,1.41
2023-12-18T05:32:28.896Z,1.37
2023-12-18T05:34:55.344Z,1.36
2023-12-18T05:37:22.409Z,1.35
2023-12-18T05:39:48.851Z,1.33
2023-12-18T05:42:20.516Z,1.33
2023-12-18T05:44:46.982Z,1.33
2023-12-18T05:47:13.449Z,1.32
2023-12-18T05:49:39.957Z,1.31
2023-12-18T05:52:06.923Z,1.37
2023-12-18T05:54:33.380Z,2.39
2023-12-18T05:56:59.795Z,3.51
2023-12-18T05:59:26.191Z,3.96
2023-12-18T06:01:52.654Z,3.55
2023-12-18T06:04:19.274Z,3.03
2023-12-18T06:06:45.812Z,2.58
2023-12-18T06:09:12.293Z,2.31
2023-12-18T06:11:38.731Z,2.18
2023-12-18T06:14:05.140Z,2.14
2023-12-18T06:16:31.551Z,2.04
2023-12-18T06:19:00.710Z,1.97
2023-12-18T06:21:27.857Z,1.88
2023-12-18T06:23:54.270Z,1.83
2023-12-18T06:26:20.678Z,1.77
2023-12-18T06:28:47.028Z,1.74
2023-12-18T06:31:13.551Z,1.72
2023-12-18T06:33:40.182Z,1.68
2023-12-18T06:36:06.852Z,1.68
2023-12-18T06:38:33.318Z,1.67
2023-12-18T06:40:59.698Z,1.66
2023-12-18T06:43:26.442Z,1.62
2023-12-18T06:45:52.900Z,1.59
2023-12-18T06:48:19.417Z,1.58
2023-12-18T06:50:45.865Z,1.57
2023-12-18T06:53:12.236Z,1.52
2023-12-18T06:55:39.919Z,1.46
2023-12-18T06:58:06.365Z,1.34
2023-12-18T07:00:40.022Z,1.21
2023-12-18T07:03:08.040Z,1.13
2023-12-18T07:05:34.816Z,1.07
2023-12-18T07:08:01.381Z,1.02
2023-12-18T07:10:27.908Z,1.02
2023-12-18T07:12:54.353Z,1.04
2023-12-18T07:15:24.950Z,1.07
2023-12-18T07:17:51.442Z,1.11
2023-12-18T07:20:18.053Z,1.16
2023-12-18T07:22:44.924Z,1.21
2023-12-18T07:25:11.487Z,1.23
2023-12-18T07:27:38.231Z,1.27
2023-12-18T07:30:05.126Z,1.25
2023-12-18T07:32:34.718Z,1.18
2023-12-18T07:35:02.180Z,1.10
2023-12-18T07:37:29.297Z,1.02
2023-12-18T07:39:58.698Z,0.97
2023-12-18T07:42:25.786Z,0.94
2023-12-18T07:44:52.582Z,0.96
2023-12-18T07:47:18.981Z,0.98
2023-12-18T07:49:49.317Z,1.01
2023-12-18T07:52:17.860Z,1.03
2023-12-18T07:54:44.382Z,0.98
2023-12-18T07:57:10.854Z,0.96
2023-12-18T07:59:40.622Z,0.98
2023-12-18T08:02:08.183Z,0.99
2023-12-18T08:04:34.596Z,0.97
2023-12-18T08:07:00.977Z,1.00
2023-12-18T08:09:27.964Z,1.02
2023-12-18T08:11:54.707Z,1.02
2023-12-18T08:14:21.081Z,1.04
2023-12-18T08:21:14.627Z,1.38
2023-12-18T08:23:45.108Z,1.53
2023-12-18T08:26:12.159Z,1.73
2023-12-18T08:28:42.698Z,1.94
2023-12-18T08:31:09.460Z,2.13
2023-12-18T08:33:36.124Z,2.28
2023-12-18T08:36:02.765Z,2.41
2023-12-18T08:38:29.981Z,2.51
2023-12-18T08:40:56.465Z,2.58
2023-12-18T08:43:23.043Z,2.34
2023-12-18T08:45:49.774Z,2.26
2023-12-18T08:48:17.148Z,2.11
2023-12-18T08:50:44.573Z,2.01
2023-12-18T08:53:11.022Z,1.92
2023-12-18T08:55:40.242Z,1.90
2023-12-18T08:58:08.629Z,1.84
2023-12-18T09:00:35.463Z,2.12
2023-12-18T09:03:02.627Z,2.30
2023-12-18T09:05:30.469Z,2.46
2023-12-18T09:07:57.026Z,2.58
2023-12-18T09:10:24.115Z,2.67
2023-12-18T09:12:53.972Z,2.79
2023-12-18T09:15:20.865Z,2.88
2023-12-18T09:17:47.502Z,2.94
2023-12-18T09:20:14.137Z,2.99
2023-12-18T09:22:40.899Z,3.02
2023-12-18T09:25:07.988Z,3.05
2023-12-18T09:27:34.566Z,3.06
2023-12-18T09:30:01.152Z,3.09
2023-12-18T09:32:27.850Z,3.15
2023-12-18T09:34:54.921Z,3.20
2023-12-18T09:37:21.531Z,3.27
2023-12-18T09:39:48.125Z,3.31
2023-12-18T09:42:17.684Z,3.33
2023-12-18T09:44:48.096Z,3.41
2023-12-18T09:47:15.159Z,3.42
2023-12-18T09:49:41.962Z,3.46
2023-12-18T09:52:11.145Z,3.55
2023-12-18T09:54:38.827Z,3.58
2023-12-18T09:57:08.588Z,3.55
2023-12-18T09:59:35.152Z,3.53
2023-12-18T10:02:01.997Z,3.49
2023-12-18T10:04:28.516Z,3.52
2023-12-18T10:06:55.348Z,3.59
2023-12-18T10:09:22.504Z,3.69
2023-12-18T10:11:53.051Z,3.74
2023-12-18T10:14:20.636Z,3.77
2023-12-18T10:16:47.198Z,3.81
2023-12-18T10:19:13.940Z,3.81
2023-12-18T10:21:40.841Z,3.88
2023-12-18T10:24:10.270Z,3.88
2023-12-18T10:26:36.898Z,3.91
2023-12-18T10:29:03.482Z,3.93
2023-12-18T10:31:30.335Z,3.94
2023-12-18T10:33:58.527Z,3.93
2023-12-18T10:36:25.940Z,3.95
2023-12-18T10:38:52.501Z,3.96
2023-12-18T10:41:24.048Z,4.04
2023-12-18T10:43:51.312Z,4.12
2023-12-18T10:46:18.191Z,4.19
2023-12-18T10:48:49.306Z,4.25
2023-12-18T10:51:23.531Z,4.20
2023-12-18T10:53:51.574Z,4.17
2023-12-18T10:56:22.409Z,4.14
2023-12-18T10:58:51.598Z,4.13
2023-12-18T11:01:18.792Z,4.02
2023-12-18T11:03:46.326Z,3.99
2023-12-18T11:06:13.464Z,4.06
2023-12-18T11:08:40.205Z,4.13
2023-12-18T11:11:07.537Z,4.19
2023-12-18T11:14:11.226Z,4.29
2023-12-18T11:17:19.335Z,4.42
2023-12-18T11:19:58.863Z,4.50
2023-12-18T11:22:43.833Z,4.54
2023-12-18T11:25:10.872Z,4.61
2023-12-18T11:27:38.443Z,4.61
2023-12-18T11:30:05.835Z,4.71
2023-12-18T11:32:45.022Z,4.75
2023-12-18T11:35:15.905Z,4.80
2023-12-18T11:37:46.612Z,4.89
2023-12-18T11:40:37.545Z,4.93
2023-12-18T11:43:05.441Z,5.00
2023-12-18T11:45:32.497Z,5.05
2023-12-18T11:48:03.934Z,5.15
2023-12-18T11:50:37.456Z,5.18
2023-12-18T11:53:08.552Z,5.24
2023-12-18T11:55:45.440Z,5.29
2023-12-18T11:58:13.323Z,5.41
2023-12-18T12:00:41.045Z,5.49
2023-12-18T12:03:07.879Z,5.49
2023-12-18T12:05:36.306Z,5.47
2023-12-18T12:08:03.044Z,5.50
2023-12-18T12:10:29.554Z,5.50
2023-12-18T12:12:57.733Z,5.55
2023-12-18T12:15:25.629Z,5.64
2023-12-18T12:18:01.143Z,5.69
2023-12-18T12:20:27.680Z,5.67
2023-12-18T12:22:54.188Z,5.65
2023-12-18T12:25:20.758Z,5.69
2023-12-18T12:27:47.287Z,5.76
2023-12-18T12:30:14.448Z,5.77
2023-12-18T12:32:41.395Z,5.84
2023-12-18T12:35:08.781Z,5.87
2023-12-18T12:37:35.336Z,5.88
2023-12-18T12:40:07.173Z,5.93
2023-12-18T12:42:36.076Z,5.89
2023-12-18T12:45:03.105Z,5.90
2023-12-18T12:47:30.576Z,5.95
2023-12-18T12:50:04.214Z,5.95
2023-12-18T12:52:30.886Z,5.87
2023-12-18T12:54:57.360Z,5.88
2023-12-18T12:57:24.016Z,5.92
2023-12-18T12:59:54.246Z,5.95
2023-12-18T13:02:25.178Z,5.97
2023-12-18T13:04:52.149Z,6.02
2023-12-18T13:07:21.390Z,5.95
2023-12-18T13:09:48.618Z,5.80
2023-12-18T13:12:18.489Z,5.65
2023-12-18T13:14:46.171Z,5.58
2023-12-18T13:17:13.720Z,5.55
2023-12-18T13:19:40.891Z,5.49
2023-12-18T13:22:08.008Z,5.43
2023-12-18T13:24:35.077Z,5.45
2023-12-18T13:27:02.387Z,5.48
2023-12-18T13:29:34.315Z,5.46
2023-12-18T13:32:02.541Z,5.51
2023-12-18T13:34:29.811Z,5.48
2023-12-18T13:36:56.992Z,5.50
2023-12-18T13:39:24.277Z,5.51
2023-12-18T13:41:56.126Z,5.53
2023-12-18T13:44:23.778Z,5.55
2023-12-18T13:46:51.329Z,5.57
2023-12-18T13:49:18.418Z,5.63
2023-12-18T13:51:45.318Z,5.64
2023-12-18T13:54:12.052Z,5.60
2023-12-18T13:56:38.798Z,5.59
2023-12-18T13:59:06.780Z,5.57
2023-12-18T14:01:33.482Z,5.53
2023-12-18T14:04:00.128Z,5.47
2023-12-18T14:06:27.266Z,5.45
2023-12-18T14:08:53.809Z,5.42
2023-12-18T14:11:20.282Z,5.41
2023-12-18T14:13:47.863Z,5.35
2023-12-18T14:16:14.573Z,5.32
2023-12-18T14:18:41.966Z,5.28
2023-12-18T14:21:08.656Z,5.26
2023-12-18T14:23:35.157Z,5.26
2023-12-18T14:26:01.893Z,5.24
2023-12-18T14:28:28.564Z,5.24
2023-12-18T14:30:55.292Z,5.27
2023-12-18T14:33:21.989Z,5.24
2023-12-18T14:35:50.448Z,5.20
2023-12-18T14:38:18.675Z,5.19
2023-12-18T14:40:48.359Z,5.18
2023-12-18T14:43:14.941Z,5.16
2023-12-18T14:45:41.508Z,5.14
2023-12-18T14:48:08.107Z,5.11
2023-12-18T14:50:35.044Z,5.10
2023-12-18T14:53:03.394Z,5.07
2023-12-18T14:55:31.561Z,5.07
2023-12-18T14:58:03.322Z,5.08
2023-12-18T15:00:30.369Z,5.10
2023-12-18T15:02:57.115Z,5.08
2023-12-18T15:05:24.520Z,4.99
2023-12-18T15:07:51.827Z,4.92
2023-12-18T15:10:19.336Z,4.84
2023-12-18T15:12:47.767Z,4.80
2023-12-18T15:15:14.578Z,4.77
2023-12-18T15:17:41.228Z,4.80
2023-12-18T15:20:09.806Z,4.81
2023-12-18T15:22:37.301Z,4.78
2023-12-18T15:25:05.388Z,4.79
2023-12-18T15:27:32.099Z,4.79
2023-12-18T15:29:58.902Z,4.78
2023-12-18T15:32:25.811Z,4.75
2023-12-18T15:34:52.668Z,4.70
2023-12-18T15:37:19.382Z,4.65
2023-12-18T15:39:47.012Z,4.59
2023-12-18T15:42:13.759Z,4.55
2023-12-18T15:44:40.850Z,4.58
2023-12-18T15:47:08.665Z,4.60
2023-12-18T15:49:35.358Z,4.58
2023-12-18T15:52:02.319Z,4.47
2023-12-18T15:54:28.944Z,4.40
2023-12-18T15:56:55.937Z,4.38
2023-12-18T15:59:23.027Z,4.42
2023-12-18T16:01:49.736Z,4.43
2023-12-18T16:04:16.380Z,4.47
2023-12-18T16:06:43.440Z,4.50
2023-12-18T16:09:13.403Z,4.49
2023-12-18T16:11:40.948Z,4.51
2023-12-18T16:14:07.626Z,4.53
2023-12-18T16:16:34.182Z,4.54
2023-12-18T16:19:00.914Z,4.54
2023-12-18T16:21:29.441Z,4.53
2023-12-18T16:23:56.054Z,4.53
2023-12-18T16:26:22.722Z,4.50
2023-12-18T16:28:50.677Z,4.47
2023-12-18T16:31:17.326Z,4.40
2023-12-18T16:33:44.130Z,4.34
2023-12-18T16:36:18.003Z,4.33
2023-12-18T16:38:49.275Z,4.31
2023-12-18T16:41:17.757Z,4.29
2023-12-18T16:43:44.991Z,4.23
2023-12-18T16:46:11.666Z,4.20
2023-12-18T16:48:38.740Z,4.18
2023-12-18T16:51:06.208Z,4.11
2023-12-18T16:53:32.775Z,4.10
2023-12-18T16:55:59.559Z,4.15
2023-12-18T16:58:26.186Z,4.16
2023-12-18T17:00:52.777Z,4.24
2023-12-18T17:03:22.518Z,4.23
2023-12-18T17:05:50.628Z,4.20
2023-12-18T17:08:17.710Z,4.09
2023-12-18T17:10:45.130Z,4.06
2023-12-18T17:13:13.833Z,4.08
2023-12-18T17:15:42.444Z,4.08
2023-12-18T17:18:10.371Z,4.04
2023-12-18T17:20:37.499Z,3.99
2023-12-18T17:23:04.563Z,3.90
2023-12-18T17:25:31.778Z,3.84
2023-12-18T17:27:58.691Z,3.85
2023-12-18T17:30:26.098Z,3.86
2023-12-18T17:32:52.687Z,3.94
2023-12-18T17:35:19.336Z,4.01
2023-12-18T17:37:45.850Z,4.12
2023-12-18T17:40:12.732Z,4.19
2023-12-18T17:42:39.520Z,4.30
2023-12-18T17:45:07.947Z,4.34
2023-12-18T17:47:34.516Z,4.34
2023-12-18T17:50:01.688Z,4.35
2023-12-18T17:52:28.557Z,4.38
2023-12-18T17:54:55.241Z,4.39
2023-12-18T17:57:21.974Z,4.44
2023-12-18T17:59:48.835Z,4.53
2023-12-18T18:02:16.220Z,4.61
2023-12-18T18:04:46.182Z,4.65
2023-12-18T18:07:13.305Z,4.63
2023-12-18T18:09:43.034Z,4.63
2023-12-18T18:12:10.244Z,4.68
2023-12-18T18:14:36.967Z,4.72
2023-12-18T18:17:03.788Z,4.75
2023-12-18T18:19:30.385Z,4.77
2023-12-18T18:21:57.050Z,4.82
2023-12-18T18:24:23.955Z,4.80
2023-12-18T18:26:51.646Z,4.80
2023-12-18T18:29:34.940Z,4.76
2023-12-18T18:32:01.957Z,4.72
2023-12-18T18:34:28.611Z,4.76
2023-12-18T18:36:55.308Z,4.72
2023-12-18T18:39:21.968Z,4.63
2023-12-18T18:41:49.084Z,4.61
2023-12-18T18:44:15.928Z,4.52
2023-12-18T18:46:42.580Z,4.32
2023-12-18T18:49:10.943Z,4.22
2023-12-18T18:51:37.492Z,4.22
2023-12-18T18:54:04.407Z,4.22
2023-12-18T18:56:31.785Z,4.17
2023-12-18T18:58:58.415Z,4.10
2023-12-18T19:01:25.115Z,4.02
2023-12-18T19:03:52.039Z,3.99
2023-12-18T19:06:18.756Z,3.89
2023-12-18T19:08:45.326Z,3.89
2023-12-18T19:11:11.978Z,3.89
2023-12-18T19:13:38.854Z,3.77
2023-12-18T19:16:05.763Z,3.74
2023-12-18T19:18:32.484Z,3.67
2023-12-18T19:20:59.078Z,3.66
2023-12-18T19:23:25.613Z,3.61
2023-12-18T19:25:52.172Z,3.42
2023-12-18T19:28:18.802Z,3.40
2023-12-18T19:30:45.717Z,3.30
2023-12-18T19:33:12.688Z,3.25
2023-12-18T19:35:42.613Z,3.25
2023-12-18T19:38:09.321Z,3.21
2023-12-18T19:40:35.936Z,3.21
2023-12-18T19:43:05.059Z,3.23
2023-12-18T19:45:31.715Z,3.23
2023-12-18T19:47:58.241Z,3.18
2023-12-18T19:50:25.313Z,3.15
2023-12-18T19:52:52.062Z,3.11
2023-12-18T19:55:18.556Z,3.14
2023-12-18T19:57:46.443Z,3.21
2023-12-18T20:00:15.272Z,3.27
2023-12-18T20:02:44.960Z,3.35
2023-12-18T20:05:11.992Z,3.40
2023-12-18T20:07:38.698Z,3.36
2023-12-18T20:10:06.904Z,3.31
2023-12-18T20:12:33.585Z,3.32
2023-12-18T20:15:00.425Z,3.28
2023-12-18T20:17:27.101Z,3.32
2023-12-18T20:19:57.621Z,3.27
2023-12-18T20:22:24.765Z,3.20
2023-12-18T20:24:51.497Z,3.21
2023-12-18T20:27:18.595Z,3.10
2023-12-18T20:29:45.714Z,3.00
2023-12-18T20:32:12.479Z,2.81
2023-12-18T20:34:39.226Z,2.64
2023-12-18T20:37:06.111Z,2.59
2023-12-18T20:39:32.827Z,2.53
2023-12-18T20:41:59.494Z,2.49
2023-12-18T20:44:26.034Z,2.53
2023-12-18T20:46:52.540Z,2.56
2023-12-18T20:49:19.289Z,2.48
2023-12-18T20:51:46.382Z,2.43
2023-12-18T20:54:12.888Z,2.41
2023-12-18T20:56:39.463Z,2.46
2023-12-18T20:59:06.821Z,2.51
2023-12-18T21:01:33.839Z,2.60
2023-12-18T21:04:00.750Z,2.59
2023-12-18T21:06:28.665Z,2.63
2023-12-18T21:08:55.436Z,2.68
2023-12-18T21:11:22.153Z,2.83
2023-12-18T21:13:48.792Z,2.90
2023-12-18T21:16:15.722Z,3.02
2023-12-18T21:18:42.891Z,3.07
2023-12-18T21:21:09.679Z,3.04
2023-12-18T21:23:36.574Z,3.05
2023-12-18T21:26:05.000Z,3.14
2023-12-18T21:28:31.678Z,3.14
2023-12-18T21:30:58.389Z,3.16
2023-12-18T21:33:25.128Z,3.21
2023-12-18T21:35:52.471Z,3.20
2023-12-18T21:38:19.213Z,3.18
2023-12-18T21:40:46.251Z,3.27
2023-12-18T21:43:12.873Z,3.24
2023-12-18T21:45:39.656Z,3.33
2023-12-18T21:48:06.970Z,3.41
2023-12-18T21:50:40.024Z,3.31
2023-12-18T21:53:07.686Z,3.25
2023-12-18T21:55:34.278Z,3.20
2023-12-18T21:58:01.302Z,3.18
2023-12-18T22:00:29.819Z,3.17
2023-12-18T22:02:58.278Z,3.20
2023-12-18T22:05:24.945Z,3.22
2023-12-18T22:07:51.799Z,3.28
2023-12-18T22:10:18.667Z,3.30
2023-12-18T22:12:45.612Z,3.27
2023-12-18T22:15:13.428Z,3.28
2023-12-18T22:17:40.145Z,3.33
2023-12-18T22:20:09.970Z,3.37
2023-12-18T22:22:38.153Z,3.33
2023-12-18T22:25:05.235Z,3.30
2023-12-18T22:27:31.798Z,3.30
2023-12-18T22:29:58.354Z,3.40
2023-12-18T22:32:24.992Z,3.51
2023-12-18T22:34:51.765Z,3.63
2023-12-18T22:37:18.372Z,3.60
2023-12-18T22:39:45.199Z,3.53
2023-12-18T22:42:11.841Z,3.52
2023-12-18T22:44:38.929Z,3.50
2023-12-18T22:47:05.556Z,3.55
2023-12-18T22:49:32.196Z,3.55
2023-12-18T22:51:58.804Z,3.49
2023-12-18T22:54:25.482Z,3.50
2023-12-18T22:56:52.007Z,3.50
2023-12-18T22:59:18.505Z,3.51
2023-12-18T23:01:45.803Z,3.57
2023-12-18T23:04:12.409Z,3.57
2023-12-18T23:06:38.992Z,3.56
2023-12-18T23:09:05.568Z,3.55
2023-12-18T23:11:32.131Z,3.51
2023-12-18T23:13:58.618Z,3.49
2023-12-18T23:16:25.149Z,3.51
2023-12-18T23:18:51.857Z,3.52
2023-12-18T23:21:18.489Z,3.57
2023-12-18T23:23:45.034Z,3.65
2023-12-18T23:26:11.543Z,3.72
2023-12-18T23:28:38.095Z,3.76
2023-12-18T23:31:05.040Z,3.69
2023-12-18T23:33:32.410Z,3.60
2023-12-18T23:35:59.717Z,3.54
2023-12-18T23:38:26.859Z,3.52
2023-12-18T23:40:54.326Z,3.43
2023-12-18T23:43:21.009Z,3.43
2023-12-18T23:45:47.682Z,3.42
2023-12-18T23:48:14.302Z,3.44
2023-12-18T23:50:41.205Z,3.46
2023-12-18T23:53:10.574Z,3.49
2023-12-18T23:55:37.070Z,3.58
2023-12-18T23:58:03.908Z,3.63
